createdAt,value
2023-01-18T00:00:40.372Z,4.44
2023-01-18T00:03:13.219Z,4.31
2023-01-18T00:05:42.050Z,4.49
2023-01-18T00:08:16.457Z,4.39
2023-01-18T00:10:44.026Z,4.32
2023-01-18T00:13:12.276Z,4.30
2023-01-18T00:15:39.617Z,4.35
2023-01-18T00:18:07.280Z,4.08
2023-01-18T00:20:34.617Z,4.18
2023-01-18T00:23:02.228Z,4.13
2023-01-18T00:25:30.640Z,4.21
2023-01-18T00:27:57.986Z,4.21
2023-01-18T00:30:27.847Z,4.23
2023-01-18T00:32:59.444Z,4.16
2023-01-18T00:35:26.962Z,4.21
2023-01-18T00:37:54.597Z,4.16
2023-01-18T00:40:22.908Z,4.27
2023-01-18T00:43:08.909Z,4.30
2023-01-18T00:45:36.280Z,4.32
2023-01-18T00:48:03.823Z,4.29
2023-01-18T00:50:31.221Z,4.32
2023-01-18T00:53:00.201Z,4.35
2023-01-18T00:55:47.081Z,4.45
2023-01-18T00:58:14.676Z,4.54
2023-01-18T01:00:42.211Z,4.43
2023-01-18T01:03:09.687Z,4.50
2023-01-18T01:05:56.599Z,4.49
2023-01-18T01:08:24.038Z,4.34
2023-01-18T01:10:53.422Z,4.35
2023-01-18T01:13:40.888Z,4.37
2023-01-18T01:16:29.417Z,4.42
2023-01-18T01:19:15.988Z,4.59
2023-01-18T01:22:01.884Z,4.48
2023-01-18T01:24:47.913Z,4.22
2023-01-18T01:27:15.249Z,4.15
2023-01-18T01:29:42.834Z,4.34
2023-01-18T01:32:10.679Z,4.25
2023-01-18T01:34:38.186Z,4.16
2023-01-18T01:37:05.727Z,4.27
2023-01-18T01:39:33.120Z,4.27
2023-01-18T01:42:00.458Z,4.30
2023-01-18T01:44:29.940Z,4.24
2023-01-18T01:47:21.471Z,4.28
2023-01-18T01:49:55.069Z,4.15
2023-01-18T01:52:27.987Z,4.09
2023-01-18T01:55:01.759Z,4.23
2023-01-18T01:57:36.625Z,4.18
2023-01-18T02:00:11.298Z,4.21
2023-01-18T02:02:45.829Z,4.17
2023-01-18T02:05:16.648Z,4.07
2023-01-18T02:07:44.449Z,4.10
2023-01-18T02:10:11.853Z,4.16
2023-01-18T02:12:41.264Z,4.12
2023-01-18T02:15:09.226Z,4.35
2023-01-18T02:17:48.652Z,4.33
2023-01-18T02:20:43.967Z,4.18
2023-01-18T02:23:30.030Z,4.16
2023-01-18T02:26:21.795Z,4.09
2023-01-18T02:29:02.024Z,4.01
2023-01-18T02:31:37.819Z,3.96
2023-01-18T02:34:13.638Z,3.92
2023-01-18T02:37:04.481Z,3.83
2023-01-18T02:39:59.520Z,3.81
2023-01-18T02:42:47.017Z,3.74
2023-01-18T02:45:59.719Z,3.75
2023-01-18T02:48:33.700Z,3.94
2023-01-18T02:51:01.027Z,3.78
2023-01-18T02:53:29.077Z,3.57
2023-01-18T02:56:13.495Z,3.66
2023-01-18T02:58:47.327Z,3.69
2023-01-18T03:01:33.922Z,3.77
2023-01-18T03:04:06.405Z,3.68
2023-01-18T03:06:34.892Z,3.72
2023-01-18T03:09:02.612Z,3.80
2023-01-18T03:11:41.929Z,3.78
2023-01-18T03:14:22.056Z,3.88
2023-01-18T03:17:04.932Z,3.80
2023-01-18T03:20:03.220Z,3.89
2023-01-18T03:22:55.514Z,3.84
2023-01-18T03:25:30.731Z,3.90
2023-01-18T03:28:21.781Z,3.90
2023-01-18T03:31:10.942Z,3.86
2023-01-18T03:33:44.923Z,3.89
2023-01-18T03:36:18.999Z,3.77
2023-01-18T03:38:52.837Z,3.77
2023-01-18T03:41:22.588Z,3.75
2023-01-18T03:43:52.274Z,3.66
2023-01-18T03:46:22.303Z,3.78
2023-01-18T03:48:49.924Z,3.77
2023-01-18T03:51:40.208Z,3.90
2023-01-18T03:54:22.864Z,3.90
2023-01-18T03:57:00.743Z,3.80
2023-01-18T03:59:34.201Z,3.84
2023-01-18T04:02:03.633Z,3.88
2023-01-18T04:04:31.235Z,3.76
2023-01-18T04:06:59.196Z,3.60
2023-01-18T04:09:27.313Z,3.52
2023-01-18T04:11:54.779Z,3.62
2023-01-18T04:14:22.293Z,3.72
2023-01-18T04:16:49.993Z,3.72
2023-01-18T04:19:17.767Z,3.75
2023-01-18T04:21:45.235Z,3.78
2023-01-18T04:24:12.928Z,3.77
2023-01-18T04:26:40.465Z,3.82
2023-01-18T04:29:09.174Z,3.83
2023-01-18T04:31:36.791Z,3.84
2023-01-18T04:34:04.348Z,3.76
2023-01-18T04:36:31.825Z,3.73
2023-01-18T04:38:59.404Z,3.74
2023-01-18T04:41:26.906Z,3.73
2023-01-18T04:43:54.672Z,3.78
2023-01-18T04:46:22.207Z,3.74
2023-01-18T04:48:51.832Z,3.78
2023-01-18T04:51:19.854Z,3.76
2023-01-18T04:53:48.094Z,3.80
2023-01-18T04:56:16.293Z,3.81
2023-01-18T04:58:44.145Z,3.82
2023-01-18T05:01:14.662Z,3.81
2023-01-18T05:03:42.461Z,3.97
2023-01-18T05:06:12.947Z,3.97
2023-01-18T05:08:41.111Z,3.84
2023-01-18T05:11:14.450Z,3.88
2023-01-18T05:13:43.028Z,3.97
2023-01-18T05:16:17.881Z,3.78
2023-01-18T05:18:46.287Z,3.93
2023-01-18T05:21:14.789Z,3.88
2023-01-18T05:23:42.420Z,3.83
2023-01-18T05:26:16.051Z,3.92
2023-01-18T05:28:44.797Z,3.79
2023-01-18T05:31:13.315Z,3.54
2023-01-18T05:33:41.113Z,3.55
2023-01-18T05:36:08.862Z,3.64
2023-01-18T05:38:36.334Z,3.75
2023-01-18T05:41:03.893Z,3.56
2023-01-18T05:43:31.515Z,3.51
2023-01-18T05:45:59.154Z,3.47
2023-01-18T05:48:26.689Z,3.47
2023-01-18T05:50:54.424Z,3.55
2023-01-18T05:53:23.249Z,3.61
2023-01-18T05:55:58.781Z,3.63
2023-01-18T05:58:27.819Z,3.53
2023-01-18T06:00:55.735Z,3.59
2023-01-18T06:03:25.271Z,3.56
2023-01-18T06:05:53.305Z,3.51
2023-01-18T06:08:21.241Z,3.53
2023-01-18T06:10:59.556Z,3.46
2023-01-18T06:13:28.986Z,3.48
2023-01-18T06:15:58.538Z,3.47
2023-01-18T06:18:27.697Z,3.47
2023-01-18T06:21:01.384Z,3.45
2023-01-18T06:23:30.323Z,3.56
2023-01-18T06:25:58.613Z,3.65
2023-01-18T06:28:26.200Z,3.66
2023-01-18T06:30:55.467Z,3.70
2023-01-18T06:33:24.213Z,3.73
2023-01-18T06:35:52.338Z,3.59
2023-01-18T06:38:20.735Z,3.59
2023-01-18T06:40:48.224Z,3.54
2023-01-18T06:43:16.068Z,3.56
2023-01-18T06:45:43.820Z,3.70
2023-01-18T06:48:11.258Z,3.75
2023-01-18T06:50:38.840Z,3.72
2023-01-18T06:53:06.329Z,3.48
2023-01-18T06:55:34.761Z,3.49
2023-01-18T06:58:02.760Z,3.44
2023-01-18T07:00:30.254Z,3.41
2023-01-18T07:02:58.664Z,3.45
2023-01-18T07:05:26.456Z,3.48
2023-01-18T07:07:53.877Z,3.39
2023-01-18T07:10:21.448Z,3.41
2023-01-18T07:12:50.941Z,3.56
2023-01-18T07:15:22.851Z,3.73
2023-01-18T07:17:50.969Z,3.60
2023-01-18T07:20:18.659Z,3.44
2023-01-18T07:22:46.147Z,3.69
2023-01-18T07:25:13.799Z,3.64
2023-01-18T07:27:43.598Z,3.52
2023-01-18T07:30:12.504Z,3.68
2023-01-18T07:32:45.161Z,3.75
2023-01-18T07:35:12.641Z,3.77
2023-01-18T07:37:40.062Z,3.70
2023-01-18T07:40:10.442Z,3.75
2023-01-18T07:42:37.995Z,3.81
2023-01-18T07:45:09.359Z,3.80
2023-01-18T07:47:39.254Z,3.64
2023-01-18T07:50:07.231Z,3.55
2023-01-18T07:52:34.936Z,3.80
2023-01-18T07:55:02.557Z,3.81
2023-01-18T07:57:29.936Z,3.99
2023-01-18T07:59:57.448Z,3.78
2023-01-18T08:02:24.913Z,3.70
2023-01-18T08:04:52.486Z,3.59
2023-01-18T08:07:20.057Z,3.76
2023-01-18T08:09:47.531Z,3.78
2023-01-18T08:12:18.109Z,3.85
2023-01-18T08:14:46.063Z,3.89
2023-01-18T08:17:13.525Z,3.92
2023-01-18T08:19:41.077Z,3.81
2023-01-18T08:22:08.619Z,3.72
2023-01-18T08:24:36.072Z,3.63
2023-01-18T08:27:03.618Z,3.77
2023-01-18T08:29:32.425Z,3.79
2023-01-18T08:32:00.778Z,3.67
2023-01-18T08:34:28.617Z,3.51
2023-01-18T08:36:56.081Z,3.80
2023-01-18T08:39:23.726Z,3.84
2023-01-18T08:41:51.204Z,3.92
2023-01-18T08:44:18.982Z,3.81
2023-01-18T08:46:46.513Z,3.89
2023-01-18T08:49:14.125Z,4.08
2023-01-18T08:51:42.005Z,3.93
2023-01-18T08:54:09.535Z,3.99
2023-01-18T08:56:37.074Z,3.85
2023-01-18T08:59:08.841Z,3.82
2023-01-18T09:01:36.402Z,3.86
2023-01-18T09:04:04.228Z,4.09
2023-01-18T09:06:33.820Z,3.94
2023-01-18T09:09:01.687Z,3.95
2023-01-18T09:11:29.252Z,3.99
2023-01-18T09:14:01.406Z,3.85
2023-01-18T09:16:30.554Z,3.94
2023-01-18T09:18:58.687Z,4.00
2023-01-18T09:21:28.481Z,4.02
2023-01-18T09:23:56.112Z,4.07
2023-01-18T09:26:23.619Z,3.94
2023-01-18T09:28:52.848Z,3.96
2023-01-18T09:31:23.489Z,4.00
2023-01-18T09:33:54.003Z,3.99
2023-01-18T09:36:26.723Z,3.89
2023-01-18T09:38:57.885Z,4.12
2023-01-18T09:41:31.181Z,4.08
2023-01-18T09:44:04.684Z,3.98
2023-01-18T09:46:36.350Z,4.01
2023-01-18T09:49:12.743Z,4.02
2023-01-18T09:51:43.053Z,4.05
2023-01-18T09:54:34.516Z,3.99
2023-01-18T09:57:16.183Z,4.06
2023-01-18T10:00:01.058Z,4.03
2023-01-18T10:02:39.427Z,4.09
2023-01-18T10:05:11.527Z,4.04
2023-01-18T10:07:52.185Z,3.96
2023-01-18T10:10:20.012Z,3.96
2023-01-18T10:12:58.172Z,3.84
2023-01-18T10:15:35.113Z,3.95
2023-01-18T10:18:02.705Z,3.82
2023-01-18T10:20:38.630Z,3.97
2023-01-18T10:23:09.305Z,3.99
2023-01-18T10:25:52.407Z,4.18
2023-01-18T10:28:48.962Z,4.11
2023-01-18T10:31:22.491Z,4.02
2023-01-18T10:33:55.310Z,3.92
2023-01-18T10:36:32.803Z,3.89
2023-01-18T10:39:02.853Z,3.69
2023-01-18T10:41:37.918Z,3.69
2023-01-18T10:44:05.753Z,3.73
2023-01-18T10:46:33.169Z,3.75
2023-01-18T10:49:00.931Z,3.85
2023-01-18T10:51:37.219Z,3.80
2023-01-18T10:54:34.176Z,3.88
2023-01-18T10:57:03.688Z,3.78
2023-01-18T10:59:42.580Z,3.83
2023-01-18T11:02:33.589Z,3.94
2023-01-18T11:05:22.482Z,4.13
2023-01-18T11:08:14.306Z,4.08
2023-01-18T11:10:43.816Z,4.10
2023-01-18T11:13:42.913Z,4.20
2023-01-18T11:16:15.642Z,4.22
2023-01-18T11:19:01.780Z,4.19
2023-01-18T11:21:43.887Z,4.26
2023-01-18T11:24:24.915Z,4.36
2023-01-18T11:26:59.789Z,4.55
2023-01-18T11:29:34.956Z,4.62
2023-01-18T11:32:06.860Z,4.77
2023-01-18T11:34:39.393Z,5.00
2023-01-18T11:37:29.333Z,5.10
2023-01-18T11:39:57.228Z,5.32
2023-01-18T11:42:28.420Z,5.63
2023-01-18T11:44:55.878Z,5.73
2023-01-18T11:47:59.089Z,5.90
2023-01-18T11:50:34.230Z,6.78
2023-01-18T11:53:24.525Z,7.03
2023-01-18T11:56:05.869Z,7.27
2023-01-18T11:58:35.763Z,7.32
2023-01-18T12:01:27.640Z,7.00
2023-01-18T12:04:06.539Z,6.88
2023-01-18T12:06:54.532Z,6.66
2023-01-18T12:09:48.955Z,6.52
2023-01-18T12:12:37.392Z,6.21
2023-01-18T12:15:17.224Z,6.12
2023-01-18T12:18:13.355Z,5.94
2023-01-18T12:21:01.924Z,6.07
2023-01-18T12:23:44.584Z,5.91
2023-01-18T12:26:49.426Z,5.95
2023-01-18T12:29:54.112Z,5.80
2023-01-18T12:32:49.032Z,5.84
2023-01-18T12:35:45.120Z,5.88
2023-01-18T12:38:26.001Z,5.88
2023-01-18T12:41:35.051Z,5.84
2023-01-18T12:44:11.665Z,5.82
2023-01-18T12:46:40.958Z,5.80
2023-01-18T12:49:19.205Z,5.75
2023-01-18T12:51:51.127Z,5.56
2023-01-18T12:54:24.811Z,5.54
2023-01-18T12:56:56.293Z,5.43
2023-01-18T12:59:40.704Z,5.65
2023-01-18T13:02:21.465Z,5.74
2023-01-18T13:04:59.659Z,5.53
2023-01-18T13:07:36.381Z,5.39
2023-01-18T13:10:07.490Z,5.37
2023-01-18T13:12:35.896Z,5.34
2023-01-18T13:15:25.833Z,5.29
2023-01-18T13:18:05.794Z,5.50
2023-01-18T13:21:02.351Z,5.52
2023-01-18T13:23:48.143Z,5.31
2023-01-18T13:26:29.932Z,5.30
2023-01-18T13:29:08.142Z,5.31
2023-01-18T13:31:36.800Z,5.24
2023-01-18T13:34:04.645Z,5.27
2023-01-18T13:36:45.263Z,5.26
2023-01-18T13:39:19.213Z,5.40
2023-01-18T13:42:05.013Z,5.38
2023-01-18T13:44:45.971Z,5.32
2023-01-18T13:47:45.959Z,5.38
2023-01-18T13:50:38.171Z,5.49
2023-01-18T13:53:14.495Z,5.53
2023-01-18T13:55:47.131Z,5.55
2023-01-18T13:58:35.022Z,5.69
2023-01-18T14:01:05.567Z,5.79
2023-01-18T14:03:43.695Z,5.58
2023-01-18T14:06:24.903Z,5.53
2023-01-18T14:08:56.201Z,5.40
2023-01-18T14:11:27.807Z,5.43
2023-01-18T14:13:55.039Z,5.35
2023-01-18T14:16:29.503Z,5.38
2023-01-18T14:19:18.366Z,5.59
2023-01-18T14:21:54.828Z,5.47
2023-01-18T14:24:37.890Z,5.48
2023-01-18T14:27:09.479Z,5.49
2023-01-18T14:29:42.927Z,5.48
2023-01-18T14:32:18.426Z,5.40
2023-01-18T14:34:46.009Z,5.42
2023-01-18T14:37:32.088Z,5.45
2023-01-18T14:40:05.517Z,5.45
2023-01-18T14:42:35.146Z,5.40
2023-01-18T14:45:04.669Z,5.38
2023-01-18T14:47:33.917Z,5.36
2023-01-18T14:50:04.216Z,5.34
2023-01-18T14:52:34.305Z,5.37
2023-01-18T14:55:01.998Z,5.35
2023-01-18T14:57:29.456Z,5.40
2023-01-18T15:00:14.825Z,5.44
2023-01-18T15:02:43.324Z,5.53
2023-01-18T15:05:11.829Z,5.45
2023-01-18T15:07:40.724Z,5.41
2023-01-18T15:10:09.452Z,5.38
2023-01-18T15:12:39.043Z,5.44
2023-01-18T15:15:21.679Z,5.35
2023-01-18T15:17:50.432Z,5.30
2023-01-18T15:20:18.300Z,5.24
2023-01-18T15:22:45.847Z,5.35
2023-01-18T15:25:39.678Z,5.23
2023-01-18T15:28:22.927Z,5.30
2023-01-18T15:30:53.725Z,5.28
2023-01-18T15:33:23.668Z,5.36
2023-01-18T15:35:56.926Z,5.27
2023-01-18T15:38:24.620Z,5.33
2023-01-18T15:41:00.994Z,5.34
2023-01-18T15:43:28.590Z,5.34
2023-01-18T15:45:57.491Z,5.29
2023-01-18T15:48:27.046Z,5.23
2023-01-18T15:51:04.335Z,5.30
2023-01-18T15:53:37.641Z,5.27
2023-01-18T15:56:07.958Z,5.22
2023-01-18T15:58:42.894Z,5.24
2023-01-18T16:01:12.978Z,5.20
2023-01-18T16:03:53.830Z,5.16
2023-01-18T16:06:21.172Z,5.25
2023-01-18T16:09:12.180Z,5.23
2023-01-18T16:11:56.626Z,5.22
2023-01-18T16:14:35.324Z,5.22
2023-01-18T16:17:16.071Z,5.31
2023-01-18T16:19:52.035Z,5.24
2023-01-18T16:22:24.943Z,5.25
2023-01-18T16:25:29.579Z,5.23
2023-01-18T16:28:00.376Z,5.15
2023-01-18T16:30:40.712Z,5.14
2023-01-18T16:33:17.748Z,5.17
2023-01-18T16:35:46.044Z,5.17
2023-01-18T16:38:15.903Z,5.13
2023-01-18T16:40:49.509Z,5.11
2023-01-18T16:43:26.409Z,5.16
2023-01-18T16:45:56.050Z,5.12
2023-01-18T16:48:26.199Z,5.19
2023-01-18T16:50:55.883Z,5.13
2023-01-18T16:53:23.438Z,5.13
2023-01-18T16:55:51.068Z,5.12
2023-01-18T16:58:19.044Z,5.14
2023-01-18T17:01:06.978Z,5.14
2023-01-18T17:03:36.104Z,5.16
2023-01-18T17:06:03.857Z,5.17
2023-01-18T17:08:31.202Z,5.07
2023-01-18T17:10:58.560Z,5.04
2023-01-18T17:13:26.022Z,4.99
2023-01-18T17:15:53.660Z,4.98
2023-01-18T17:18:26.953Z,4.98
2023-01-18T17:20:55.426Z,4.98
2023-01-18T17:23:23.386Z,4.97
2023-01-18T17:25:51.080Z,4.93
2023-01-18T17:28:19.445Z,4.98
2023-01-18T17:30:49.500Z,5.00
2023-01-18T17:33:20.431Z,5.02
2023-01-18T17:35:49.985Z,5.00
2023-01-18T17:38:24.415Z,4.99
2023-01-18T17:40:52.767Z,4.97
2023-01-18T17:43:32.027Z,5.03
2023-01-18T17:46:05.950Z,5.05
2023-01-18T17:48:33.999Z,5.03
2023-01-18T17:51:01.533Z,4.97
2023-01-18T17:53:29.047Z,4.92
2023-01-18T17:55:56.526Z,5.00
2023-01-18T17:58:24.244Z,4.95
2023-01-18T18:00:51.956Z,4.92
2023-01-18T18:03:20.555Z,4.90
2023-01-18T18:05:48.299Z,4.91
2023-01-18T18:08:18.101Z,4.83
2023-01-18T18:10:45.574Z,4.76
2023-01-18T18:13:12.931Z,4.77
2023-01-18T18:15:45.926Z,4.71
2023-01-18T18:18:22.638Z,4.68
2023-01-18T18:20:56.939Z,4.70
2023-01-18T18:23:25.240Z,4.75
2023-01-18T18:25:53.075Z,4.85
2023-01-18T18:28:21.529Z,4.77
2023-01-18T18:30:50.355Z,4.74
2023-01-18T18:33:19.565Z,4.68
2023-01-18T18:35:51.892Z,4.76
2023-01-18T18:38:22.911Z,4.79
2023-01-18T18:40:51.221Z,4.75
2023-01-18T18:43:19.225Z,4.76
2023-01-18T18:45:47.704Z,4.77
2023-01-18T18:48:15.292Z,4.78
2023-01-18T18:50:42.775Z,4.70
2023-01-18T18:53:10.430Z,4.70
2023-01-18T18:55:38.022Z,4.76
2023-01-18T18:58:05.830Z,4.71
2023-01-18T19:00:33.314Z,4.66
2023-01-18T19:03:02.755Z,4.66
2023-01-18T19:05:31.312Z,4.67
2023-01-18T19:07:59.312Z,4.64
2023-01-18T19:10:29.051Z,4.71
2023-01-18T19:12:57.595Z,4.73
2023-01-18T19:15:25.701Z,4.80
2023-01-18T19:17:53.945Z,4.81
2023-01-18T19:20:21.966Z,4.75
2023-01-18T19:22:50.561Z,4.71
2023-01-18T19:25:18.578Z,4.74
2023-01-18T19:27:46.098Z,4.79
2023-01-18T19:30:18.697Z,4.78
2023-01-18T19:32:51.071Z,4.81
2023-01-18T19:35:20.225Z,4.90
2023-01-18T19:37:48.488Z,4.88
2023-01-18T19:40:16.979Z,4.91
2023-01-18T19:42:44.620Z,4.96
2023-01-18T19:45:19.575Z,4.95
2023-01-18T19:47:54.771Z,5.04
2023-01-18T19:50:23.433Z,4.98
2023-01-18T19:52:51.282Z,4.88
2023-01-18T19:55:20.223Z,4.80
2023-01-18T19:57:48.640Z,4.82
2023-01-18T20:00:16.671Z,4.87
2023-01-18T20:02:44.259Z,4.86
2023-01-18T20:05:11.827Z,4.89
2023-01-18T20:07:39.744Z,4.90
2023-01-18T20:10:07.810Z,4.94
2023-01-18T20:12:35.371Z,4.88
2023-01-18T20:15:03.225Z,4.90
2023-01-18T20:17:30.932Z,4.93
2023-01-18T20:19:58.476Z,4.92
2023-01-18T20:22:26.088Z,4.92
2023-01-18T20:24:53.546Z,4.92
2023-01-18T20:27:21.035Z,4.87
2023-01-18T20:29:48.456Z,4.82
2023-01-18T20:32:17.582Z,4.79
2023-01-18T20:34:47.020Z,4.80
2023-01-18T20:37:15.661Z,4.75
2023-01-18T20:39:43.247Z,4.74
2023-01-18T20:42:10.657Z,4.67
2023-01-18T20:44:38.111Z,4.71
2023-01-18T20:47:05.781Z,4.69
2023-01-18T20:49:38.089Z,4.74
2023-01-18T20:52:07.719Z,4.77
2023-01-18T20:54:36.705Z,4.74
2023-01-18T20:57:07.262Z,4.68
2023-01-18T20:59:34.759Z,4.58
2023-01-18T21:02:03.132Z,4.57
2023-01-18T21:04:30.750Z,4.60
2023-01-18T21:06:58.377Z,4.62
2023-01-18T21:09:25.998Z,4.62
2023-01-18T21:11:53.650Z,4.56
2023-01-18T21:14:21.152Z,4.60
2023-01-18T21:16:48.788Z,4.58
2023-01-18T21:19:16.871Z,4.71
2023-01-18T21:21:44.691Z,4.84
2023-01-18T21:24:12.328Z,4.77
2023-01-18T21:26:39.797Z,4.80
2023-01-18T21:29:07.189Z,4.72
2023-01-18T21:31:34.652Z,4.70
2023-01-18T21:34:02.061Z,4.58
2023-01-18T21:36:29.472Z,4.66
2023-01-18T21:38:57.000Z,4.68
2023-01-18T21:41:43.056Z,4.66
2023-01-18T21:44:30.733Z,4.92
2023-01-18T21:46:59.020Z,4.75
2023-01-18T21:50:15.951Z,4.66
2023-01-18T21:52:51.900Z,4.63
2023-01-18T21:55:20.135Z,4.55
2023-01-18T21:58:07.464Z,4.54
2023-01-18T22:00:39.422Z,4.50
2023-01-18T22:03:07.303Z,4.58
2023-01-18T22:05:34.904Z,4.58
2023-01-18T22:08:02.769Z,4.52
2023-01-18T22:10:30.345Z,4.52
2023-01-18T22:12:57.960Z,4.49
2023-01-18T22:15:25.498Z,4.47
2023-01-18T22:17:53.073Z,4.54
2023-01-18T22:20:20.674Z,4.44
2023-01-18T22:22:48.499Z,4.49
2023-01-18T22:25:15.900Z,4.44
2023-01-18T22:27:43.499Z,4.37
2023-01-18T22:30:11.441Z,4.42
2023-01-18T22:32:39.274Z,4.38
2023-01-18T22:35:06.756Z,4.38
2023-01-18T22:37:34.241Z,4.43
2023-01-18T22:40:01.569Z,4.50
2023-01-18T22:42:29.183Z,4.43
2023-01-18T22:44:56.600Z,4.39
2023-01-18T22:47:24.039Z,4.45
2023-01-18T22:49:51.452Z,4.51
2023-01-18T22:52:19.040Z,4.41
2023-01-18T22:54:46.725Z,4.32
2023-01-18T22:57:14.464Z,4.40
2023-01-18T22:59:41.915Z,4.38
2023-01-18T23:02:09.322Z,4.54
2023-01-18T23:04:36.804Z,4.46
2023-01-18T23:07:04.390Z,4.40
2023-01-18T23:09:31.759Z,4.44
2023-01-18T23:11:59.174Z,4.54
2023-01-18T23:14:45.149Z,4.53
2023-01-18T23:17:32.154Z,4.59
2023-01-18T23:19:59.677Z,4.46
2023-01-18T23:22:27.294Z,4.45
2023-01-18T23:24:54.878Z,4.41
2023-01-18T23:27:22.891Z,4.46
2023-01-18T23:29:57.415Z,4.44
2023-01-18T23:32:26.624Z,4.47
2023-01-18T23:34:55.419Z,4.42
2023-01-18T23:37:23.569Z,4.46
2023-01-18T23:40:09.644Z,4.51
2023-01-18T23:42:55.645Z,4.51
2023-01-18T23:45:41.749Z,4.36
2023-01-18T23:48:29.767Z,4.41
2023-01-18T23:51:15.752Z,4.35
2023-01-18T23:54:01.777Z,4.37
2023-01-18T23:56:29.413Z,4.26
2023-01-18T23:58:57.479Z,4.34
